Time;durP1;ratioP1;P1;durP2;ratioP2;P2;SDS_P1;SDS_P2;PMS_P1;PMS_P2;Temp;Humidity;BMP_temperature;BMP_pressure;BME280_temperature;BME280_humidity;BME280_pressure;Samples;Min_cycle;Max_cycle;Signal;HPM_P1;HPM_P2
2021/10/24 00:00:57;;;;;;;;;;;;;;;5.45;100.00;101346.59;1736034;81;20172;-82
2021/10/24 00:03:25;;;;;;;;;;;;;;;5.39;100.00;101348.66;1741903;81;20182;-83
2021/10/24 00:05:51;;;;;;;;;;;;;;;5.42;100.00;101350.23;1742915;81;20475;-80
2021/10/24 00:08:20;;;;;;;;;;;;;;;5.40;100.00;101349.02;1741642;81;21134;-80
2021/10/24 00:10:57;;;;;;;;;;;;;;;5.36;100.00;101354.08;1738970;82;20153;-80
2021/10/24 00:13:20;;;;;;;;;;;;;;;5.33;100.00;101346.85;1716136;82;20151;-79
2021/10/24 00:15:46;;;;;;;;;;;;;;;5.33;100.00;101363.43;1713749;82;20245;-80
2021/10/24 00:18:14;;;;;;;;;;;;;;;5.32;100.00;101361.73;1711096;82;20252;-81
2021/10/24 00:20:39;;;;;;;;;;;;;;;5.29;100.00;101359.30;1742110;81;20538;-81
2021/10/24 00:23:05;;;;;;;;;;;;;;;5.24;100.00;101361.36;1714693;82;20248;-80
2021/10/24 00:25:31;;;;;;;;;;;;;;;5.12;100.00;101366.84;1737624;82;20161;-80
2021/10/24 00:27:59;;;;;;;;;;;;;;;5.04;100.00;101363.38;1741707;81;20185;-78
2021/10/24 00:30:28;;;;;;;;;;;;;;;5.10;100.00;101366.11;1739654;81;20192;-78
2021/10/24 00:32:57;;;;;;;;;;;;;;;5.11;100.00;101369.11;1742429;82;20328;-77
2021/10/24 00:35:23;;;;;;;;;;;;;;;4.95;100.00;101367.84;1740774;81;20323;-78
2021/10/24 00:37:49;;;;;;;;;;;;;;;4.97;100.00;101368.61;1743154;81;20184;-80
2021/10/24 00:40:16;;;;;;;;;;;;;;;5.00;100.00;101376.73;1736712;81;20145;-78
2021/10/24 00:42:49;;;;;;;;;;;;;;;5.01;100.00;101379.27;1745288;81;20212;-78
2021/10/24 00:45:16;;;;;;;;;;;;;;;5.00;100.00;101380.22;1716983;81;21091;-78
2021/10/24 00:47:42;;;;;;;;;;;;;;;5.09;100.00;101384.05;1735000;81;20220;-78
2021/10/24 00:50:08;;;;;;;;;;;;;;;5.10;100.00;101373.13;1747703;81;20146;-78
2021/10/24 00:52:33;;;;;;;;;;;;;;;4.95;100.00;101373.55;1741606;81;20181;-78
2021/10/24 00:54:59;;;;;;;;;;;;;;;5.04;100.00;101385.63;1709490;81;20199;-78
2021/10/24 00:57:26;;;;;;;;;;;;;;;5.14;100.00;101396.88;1739226;81;21109;-81
2021/10/24 00:59:53;;;;;;;;;;;;;;;5.08;100.00;101397.23;1737847;81;20180;-79
2021/10/24 01:02:21;;;;;;;;;;;;;;;4.99;100.00;101399.46;1738144;81;20144;-80
2021/10/24 01:04:47;;;;;;;;;;;;;;;5.07;100.00;101396.39;1738904;81;20134;-81
2021/10/24 01:07:12;;;;;;;;;;;;;;;5.12;100.00;101409.22;1710799;81;20273;-81
2021/10/24 01:09:42;;;;;;;;;;;;;;;5.01;100.00;101401.99;1712483;81;21177;-80
2021/10/24 01:12:09;;;;;;;;;;;;;;;5.06;100.00;101407.80;1741301;81;20142;-81
2021/10/24 01:14:35;;;;;;;;;;;;;;;5.11;100.00;101406.22;1739333;81;20194;-82
2021/10/24 01:17:02;;;;;;;;;;;;;;;5.11;100.00;101410.14;1741055;81;20681;-81
2021/10/24 01:19:28;;;;;;;;;;;;;;;5.08;100.00;101407.70;1706825;81;20638;-81
2021/10/24 01:21:54;;;;;;;;;;;;;;;4.97;100.00;101403.95;1746422;81;21180;-80
2021/10/24 01:24:21;;;;;;;;;;;;;;;5.05;100.00;101406.13;1737805;81;20150;-79
2021/10/24 01:26:48;;;;;;;;;;;;;;;5.00;100.00;101406.39;1749898;81;20199;-80
2021/10/24 01:29:16;;;;;;;;;;;;;;;5.02;100.00;101406.30;1742087;81;20193;-79
2021/10/24 01:31:42;;;;;;;;;;;;;;;5.04;100.00;101392.17;1739819;81;20235;-80
2021/10/24 01:34:09;;;;;;;;;;;;;;;5.10;100.00;101399.31;1736445;81;21095;-80
2021/10/24 01:36:37;;;;;;;;;;;;;;;5.14;100.00;101395.12;1736833;81;20130;-80
2021/10/24 01:39:04;;;;;;;;;;;;;;;5.19;100.00;101407.94;1739324;81;20204;-80
2021/10/24 01:41:30;;;;;;;;;;;;;;;5.19;100.00;101414.48;1739996;81;20174;-79
2021/10/24 01:43:57;;;;;;;;;;;;;;;5.22;100.00;101410.37;1707519;81;20339;-80
2021/10/24 01:46:23;;;;;;;;;;;;;;;5.27;100.00;101412.25;1741419;81;21078;-80
2021/10/24 01:48:50;;;;;;;;;;;;;;;5.25;100.00;101420.67;1739461;81;20313;-80
2021/10/24 01:51:17;;;;;;;;;;;;;;;5.28;100.00;101420.47;1674746;81;20155;-77
2021/10/24 01:53:45;;;;;;;;;;;;;;;5.21;100.00;101421.78;1706524;81;20720;-78
2021/10/24 01:56:15;;;;;;;;;;;;;;;5.28;100.00;101420.47;1740487;81;20172;-77
2021/10/24 01:58:40;;;;;;;;;;;;;;;5.19;100.00;101421.03;1739443;81;20150;-78
2021/10/24 02:01:06;;;;;;;;;;;;;;;5.14;100.00;101426.98;1741249;81;20172;-79
2021/10/24 02:03:32;;;;;;;;;;;;;;;5.17;100.00;101416.33;1714620;81;20236;-79
2021/10/24 02:05:59;;;;;;;;;;;;;;;5.16;100.00;101426.45;1738935;81;20184;-79
2021/10/24 02:08:25;;;;;;;;;;;;;;;5.19;100.00;101423.17;1743334;80;20579;-79
2021/10/24 02:10:52;;;;;;;;;;;;;;;5.11;100.00;101414.94;1741785;81;20988;-79
2021/10/24 02:13:19;;;;;;;;;;;;;;;5.12;100.00;101417.08;1738766;81;20153;-79
2021/10/24 02:15:45;;;;;;;;;;;;;;;5.14;100.00;101423.92;1742884;81;20186;-78
2021/10/24 02:18:13;;;;;;;;;;;;;;;5.16;100.00;101434.30;1739841;81;20189;-79
2021/10/24 02:20:39;;;;;;;;;;;;;;;5.09;100.00;101440.82;1742410;81;20150;-80
2021/10/24 02:23:06;;;;;;;;;;;;;;;5.18;100.00;101441.59;1738824;81;21066;-79
2021/10/24 02:25:33;;;;;;;;;;;;;;;5.16;100.00;101444.78;1741450;81;20178;-80
2021/10/24 02:28:00;;;;;;;;;;;;;;;5.11;100.00;101442.88;1741460;81;20174;-80
2021/10/24 02:30:26;;;;;;;;;;;;;;;5.07;100.00;101451.86;1742051;80;20637;-78
2021/10/24 02:32:51;;;;;;;;;;;;;;;4.97;100.00;101460.23;1738813;81;20154;-78
2021/10/24 02:35:21;;;;;;;;;;;;;;;4.87;100.00;101452.99;1739640;81;21131;-78
2021/10/24 02:37:48;;;;;;;;;;;;;;;4.92;100.00;101450.47;1730664;82;20142;-78
2021/10/24 02:40:14;;;;;;;;;;;;;;;4.85;100.00;101451.30;1737213;81;20614;-79
2021/10/24 02:42:40;;;;;;;;;;;;;;;4.71;100.00;101456.47;1713043;82;20127;-80
2021/10/24 02:45:08;;;;;;;;;;;;;;;4.65;100.00;101466.80;1734953;82;20296;-79
2021/10/24 02:47:35;;;;;;;;;;;;;;;4.68;100.00;101471.87;1729885;81;21321;-80
2021/10/24 02:50:03;;;;;;;;;;;;;;;4.70;100.00;101460.48;1735635;82;20127;-80
2021/10/24 02:52:30;;;;;;;;;;;;;;;4.64;100.00;101462.48;1730897;82;20182;-79
2021/10/24 02:54:58;;;;;;;;;;;;;;;4.73;100.00;101468.16;1736178;81;20194;-79
2021/10/24 02:57:26;;;;;;;;;;;;;;;4.64;100.00;101475.57;1711692;82;20296;-79
2021/10/24 02:59:51;;;;;;;;;;;;;;;4.65;100.00;101470.73;1727784;81;21101;-78
2021/10/24 03:02:19;;;;;;;;;;;;;;;4.68;100.00;101474.48;1712223;82;20235;-79
2021/10/24 03:04:45;;;;;;;;;;;;;;;4.63;100.00;101479.14;1732882;82;20214;-79
2021/10/24 03:07:14;;;;;;;;;;;;;;;4.68;100.00;101477.09;1710845;82;21369;-80
2021/10/24 03:09:41;;;;;;;;;;;;;;;4.73;100.00;101494.33;1710544;82;20182;-81
2021/10/24 03:12:06;;;;;;;;;;;;;;;4.70;100.00;101495.80;1734225;82;21205;-82
2021/10/24 03:14:32;;;;;;;;;;;;;;;4.49;100.00;101492.14;1732216;82;20155;-81
2021/10/24 03:17:01;;;;;;;;;;;;;;;4.51;100.00;101489.44;1734087;81;20277;-81
2021/10/24 03:19:28;;;;;;;;;;;;;;;4.52;100.00;101484.09;1734699;81;20606;-79
2021/10/24 03:21:54;;;;;;;;;;;;;;;4.58;100.00;101486.38;1730869;81;20118;-80
2021/10/24 03:24:23;;;;;;;;;;;;;;;4.64;100.00;101499.12;1725348;82;20445;-81
2021/10/24 03:26:50;;;;;;;;;;;;;;;4.71;100.00;101504.02;1730534;82;20154;-79
2021/10/24 03:29:15;;;;;;;;;;;;;;;4.64;100.00;101496.50;1731306;82;20623;-79
2021/10/24 03:31:43;;;;;;;;;;;;;;;4.70;100.00;101510.20;1731005;82;20178;-80
2021/10/24 03:34:08;;;;;;;;;;;;;;;4.55;100.00;101510.09;1732673;81;20203;-79
2021/10/24 03:36:34;;;;;;;;;;;;;;;4.60;100.00;101510.70;1700346;82;21289;-79
2021/10/24 03:39:02;;;;;;;;;;;;;;;4.72;100.00;101517.48;1709566;82;20997;-80
2021/10/24 03:41:30;;;;;;;;;;;;;;;4.87;100.00;101518.42;1733048;82;20142;-80
2021/10/24 03:43:57;;;;;;;;;;;;;;;4.78;100.00;101518.45;1733102;81;20149;-80
2021/10/24 03:46:25;;;;;;;;;;;;;;;4.77;100.00;101521.55;1730258;82;20247;-79
2021/10/24 03:48:54;;;;;;;;;;;;;;;4.68;100.00;101517.66;1726945;82;21154;-80
2021/10/24 03:51:23;;;;;;;;;;;;;;;4.73;100.00;101520.50;1734921;82;20186;-80
2021/10/24 03:53:50;;;;;;;;;;;;;;;4.85;100.00;101525.05;1731787;82;20131;-79
2021/10/24 03:56:15;;;;;;;;;;;;;;;5.02;100.00;101543.27;1733262;82;20512;-80
2021/10/24 03:58:44;;;;;;;;;;;;;;;4.98;100.00;101526.04;1731870;82;20159;-80
2021/10/24 04:01:15;;;;;;;;;;;;;;;4.92;100.00;101534.23;1732291;81;21113;-80
2021/10/24 04:03:41;;;;;;;;;;;;;;;5.09;100.00;101538.53;1730309;82;20300;-80
2021/10/24 04:06:08;;;;;;;;;;;;;;;5.13;100.00;101539.22;1708343;82;20227;-80
2021/10/24 04:08:37;;;;;;;;;;;;;;;5.26;100.00;101537.58;1735663;82;20237;-80
2021/10/24 04:11:06;;;;;;;;;;;;;;;5.19;100.00;101529.71;1730468;82;20236;-79
2021/10/24 04:13:33;;;;;;;;;;;;;;;5.19;100.00;101532.33;1735655;81;21089;-82
2021/10/24 04:16:02;;;;;;;;;;;;;;;5.21;100.00;101531.77;1684149;82;20202;-83
2021/10/24 04:18:28;;;;;;;;;;;;;;;5.17;100.00;101538.09;1730563;82;20134;-82
2021/10/24 04:20:55;;;;;;;;;;;;;;;5.03;100.00;101538.87;1703728;82;20668;-82
2021/10/24 04:23:25;;;;;;;;;;;;;;;5.01;100.00;101525.87;1734713;82;20294;-81
2021/10/24 04:25:53;;;;;;;;;;;;;;;5.08;100.00;101527.70;1729661;82;22491;-82
2021/10/24 04:28:21;;;;;;;;;;;;;;;5.11;100.00;101526.66;1730499;82;20162;-82
2021/10/24 04:30:49;;;;;;;;;;;;;;;5.13;100.00;101537.91;1733592;82;20182;-81
2021/10/24 04:33:14;;;;;;;;;;;;;;;5.14;100.00;101534.34;1706509;82;20888;-79
2021/10/24 04:35:45;;;;;;;;;;;;;;;5.18;100.00;101543.25;1734408;81;20606;-80
2021/10/24 04:38:11;;;;;;;;;;;;;;;5.28;100.00;101539.63;1740969;82;21151;-80
2021/10/24 04:40:37;;;;;;;;;;;;;;;5.21;100.00;101544.39;1712638;82;20325;-80
2021/10/24 04:43:03;;;;;;;;;;;;;;;5.24;100.00;101528.97;1742109;81;20249;-81
2021/10/24 04:45:30;;;;;;;;;;;;;;;5.17;100.00;101538.09;1716808;82;20114;-81
2021/10/24 04:48:02;;;;;;;;;;;;;;;5.04;100.00;101546.64;1742022;81;20507;-81
2021/10/24 04:50:31;;;;;;;;;;;;;;;5.02;100.00;101547.67;1740188;81;20503;-81
2021/10/24 04:52:56;;;;;;;;;;;;;;;5.10;100.00;101558.55;1738047;81;20154;-81
2021/10/24 04:55:22;;;;;;;;;;;;;;;5.25;100.00;101563.41;1742879;81;20154;-80
2021/10/24 04:57:52;;;;;;;;;;;;;;;5.18;100.00;101572.53;1740577;81;20829;-80
2021/10/24 05:00:20;;;;;;;;;;;;;;;5.22;100.00;101570.13;1737603;82;20673;-80
2021/10/24 05:02:46;;;;;;;;;;;;;;;5.23;100.00;101567.87;1743676;81;20110;-80
2021/10/24 05:05:14;;;;;;;;;;;;;;;5.12;100.00;101574.19;1743045;82;20178;-80
2021/10/24 05:07:42;;;;;;;;;;;;;;;5.11;100.00;101565.94;1741280;82;20178;-80
2021/10/24 05:10:08;;;;;;;;;;;;;;;5.07;100.00;101568.37;1738674;82;20182;-82
2021/10/24 05:12:33;;;;;;;;;;;;;;;4.99;100.00;101577.48;1739797;82;20145;-81
2021/10/24 05:15:02;;;;;;;;;;;;;;;4.96;100.00;101577.65;1742938;82;21068;-82
2021/10/24 05:17:29;;;;;;;;;;;;;;;4.93;100.00;101572.58;1742703;82;20495;-80
2021/10/24 05:19:55;;;;;;;;;;;;;;;5.01;100.00;101569.06;1744857;81;20126;-81
2021/10/24 05:22:24;;;;;;;;;;;;;;;5.08;100.00;101579.20;1740112;82;20174;-82
2021/10/24 05:24:50;;;;;;;;;;;;;;;5.09;100.00;101573.04;1742177;81;20174;-81
2021/10/24 05:27:16;;;;;;;;;;;;;;;5.18;100.00;101576.45;1712986;82;21391;-79
2021/10/24 05:29:43;;;;;;;;;;;;;;;5.18;100.00;101573.84;1742301;82;20276;-80
2021/10/24 05:32:09;;;;;;;;;;;;;;;5.17;100.00;101577.38;1739146;82;20531;-80
2021/10/24 05:34:38;;;;;;;;;;;;;;;5.10;100.00;101576.05;1743166;81;20169;-80
2021/10/24 05:37:05;;;;;;;;;;;;;;;5.02;100.00;101574.69;1742609;81;20627;-79
2021/10/24 05:39:32;;;;;;;;;;;;;;;4.98;100.00;101577.56;1743954;81;21926;-79
2021/10/24 05:41:58;;;;;;;;;;;;;;;5.04;100.00;101585.08;1710272;80;20593;-79
2021/10/24 05:44:24;;;;;;;;;;;;;;;4.92;100.00;101586.59;1739035;81;20236;-79
2021/10/24 05:46:50;;;;;;;;;;;;;;;4.90;100.00;101597.61;1737350;81;20538;-81
2021/10/24 05:49:16;;;;;;;;;;;;;;;4.98;100.00;101600.65;1739607;81;20182;-81
2021/10/24 05:51:42;;;;;;;;;;;;;;;4.89;100.00;101606.39;1744883;81;21106;-80
2021/10/24 05:54:08;;;;;;;;;;;;;;;4.84;100.00;101597.95;1738841;81;20205;-80
2021/10/24 05:56:34;;;;;;;;;;;;;;;4.89;100.00;101605.08;1708360;81;20582;-80
2021/10/24 05:59:01;;;;;;;;;;;;;;;4.92;100.00;101604.91;1743904;81;20600;-81
2021/10/24 06:01:28;;;;;;;;;;;;;;;4.98;100.00;101607.19;1736463;81;20178;-80
2021/10/24 06:03:54;;;;;;;;;;;;;;;4.97;100.00;101617.31;1733590;81;21086;-81
2021/10/24 06:06:21;;;;;;;;;;;;;;;5.02;100.00;101614.44;1739391;81;20153;-81
2021/10/24 06:08:47;;;;;;;;;;;;;;;5.03;100.00;101628.75;1742998;81;20296;-80
2021/10/24 06:13:47;;;;;;;;;;;;;;;4.76;100.00;101634.16;1742791;81;20146;-80
2021/10/24 06:16:13;;;;;;;;;;;;;;;4.88;100.00;101626.97;1740043;81;21931;-79
2021/10/24 06:18:40;;;;;;;;;;;;;;;4.81;100.00;101626.42;1741619;81;20183;-80
2021/10/24 06:21:07;;;;;;;;;;;;;;;5.01;100.00;101629.28;1742242;81;20154;-80
2021/10/24 06:23:34;;;;;;;;;;;;;;;5.07;100.00;101633.83;1738901;81;20196;-80
2021/10/24 06:26:00;;;;;;;;;;;;;;;5.19;100.00;101641.01;1741695;81;20499;-79
2021/10/24 06:28:26;;;;;;;;;;;;;;;5.12;100.00;101637.02;1746266;81;21082;-79
2021/10/24 06:30:51;;;;;;;;;;;;;;;5.26;100.00;101652.81;1746834;81;20325;-80
2021/10/24 06:33:17;;;;;;;;;;;;;;;5.29;100.00;101651.34;1739712;81;20165;-79
2021/10/24 06:35:42;;;;;;;;;;;;;;;5.38;100.00;101653.92;1739687;81;20180;-82
2021/10/24 06:38:10;;;;;;;;;;;;;;;5.40;100.00;101663.37;1710121;81;20125;-79
2021/10/24 06:40:36;;;;;;;;;;;;;;;5.44;100.00;101657.52;1745380;80;20338;-78
2021/10/24 06:43:01;;;;;;;;;;;;;;;5.42;100.00;101662.45;1742471;81;20252;-79
2021/10/24 06:45:28;;;;;;;;;;;;;;;5.48;100.00;101663.41;1742205;80;20189;-79
2021/10/24 06:47:54;;;;;;;;;;;;;;;5.62;100.00;101669.20;1739242;81;20179;-79
2021/10/24 06:50:20;;;;;;;;;;;;;;;5.77;100.00;101670.12;1744261;81;20166;-80
2021/10/24 06:52:47;;;;;;;;;;;;;;;5.77;100.00;101679.29;1745677;80;21094;-79
2021/10/24 06:55:12;;;;;;;;;;;;;;;5.78;100.00;101680.52;1745888;81;20177;-79
2021/10/24 06:57:52;;;;;;;;;;;;;;;5.66;100.00;101691.21;1747398;81;20220;-79
2021/10/24 07:00:22;;;;;;;;;;;;;;;5.50;100.00;101692.98;1743986;81;20162;-81
2021/10/24 07:02:54;;;;;;;;;;;;;;;5.63;100.00;101683.52;1749197;81;20258;-84
2021/10/24 07:05:23;;;;;;;;;;;;;;;5.63;100.00;101691.39;1742984;81;20159;-79
2021/10/24 07:07:49;;;;;;;;;;;;;;;5.73;100.00;101690.39;1744500;81;20190;-79
2021/10/24 07:10:15;;;;;;;;;;;;;;;5.74;100.00;101700.79;1746261;81;20275;-80
2021/10/24 07:12:40;;;;;;;;;;;;;;;5.79;100.00;101704.47;1746444;81;20218;-82
2021/10/24 07:15:09;;;;;;;;;;;;;;;5.84;100.00;101707.69;1714867;81;20154;-79
2021/10/24 07:17:34;;;;;;;;;;;;;;;5.88;100.00;101712.28;1743625;81;21280;-81
2021/10/24 07:20:00;;;;;;;;;;;;;;;5.98;100.00;101713.50;1715696;81;20330;-78
2021/10/24 07:22:27;;;;;;;;;;;;;;;6.01;100.00;101719.88;1742955;81;20263;-80
2021/10/24 07:24:53;;;;;;;;;;;;;;;6.11;100.00;101722.33;1742880;81;20924;-79
2021/10/24 07:27:19;;;;;;;;;;;;;;;5.99;100.00;101728.27;1710798;81;20134;-78
2021/10/24 07:29:45;;;;;;;;;;;;;;;6.08;100.00;101732.16;1742353;81;21132;-79
2021/10/24 07:32:10;;;;;;;;;;;;;;;6.14;99.50;101730.94;1745739;81;20518;-79
2021/10/24 07:34:38;;;;;;;;;;;;;;;6.24;99.87;101737.36;1745323;81;20158;-80
2021/10/24 07:37:04;;;;;;;;;;;;;;;6.36;98.96;101745.83;1739796;81;20370;-79
2021/10/24 07:39:31;;;;;;;;;;;;;;;6.49;99.42;101742.49;1735842;82;20154;-80
2021/10/24 07:41:56;;;;;;;;;;;;;;;6.63;98.78;101743.83;1730854;82;21225;-79
2021/10/24 07:44:24;;;;;;;;;;;;;;;6.58;99.08;101746.72;1732981;81;20155;-79
2021/10/24 07:46:54;;;;;;;;;;;;;;;6.34;98.85;101756.03;1731143;81;20205;-79
2021/10/24 07:49:17;;;;;;;;;;;;;;;6.41;98.46;101760.83;1730615;81;20152;-78
2021/10/24 07:51:45;;;;;;;;;;;;;;;6.38;98.05;101766.26;1734705;81;20149;-79
2021/10/24 07:54:13;;;;;;;;;;;;;;;6.44;97.99;101760.66;1729342;82;20160;-79
2021/10/24 07:56:40;;;;;;;;;;;;;;;6.47;97.92;101769.66;1733268;81;20210;-80
2021/10/24 07:59:07;;;;;;;;;;;;;;;6.64;97.90;101767.84;1736537;82;20206;-81
2021/10/24 08:01:36;;;;;;;;;;;;;;;6.58;97.83;101770.82;1730162;81;20174;-77
2021/10/24 08:04:03;;;;;;;;;;;;;;;6.45;97.85;101767.60;1728998;82;20184;-79
2021/10/24 08:06:31;;;;;;;;;;;;;;;6.44;98.20;101766.38;1730270;82;21071;-79
2021/10/24 08:08:58;;;;;;;;;;;;;;;6.46;97.75;101761.43;1711698;82;20157;-80
2021/10/24 08:11:26;;;;;;;;;;;;;;;6.64;97.52;101761.28;1730572;81;20340;-78
2021/10/24 08:13:55;;;;;;;;;;;;;;;6.50;97.27;101758.63;1735519;81;20150;-81
2021/10/24 08:16:21;;;;;;;;;;;;;;;6.59;97.70;101765.96;1715928;82;20151;-80
2021/10/24 08:18:46;;;;;;;;;;;;;;;6.53;97.22;101770.26;1734108;81;21114;-81
2021/10/24 08:21:15;;;;;;;;;;;;;;;6.43;96.53;101778.67;1735996;81;20170;-79
2021/10/24 08:23:41;;;;;;;;;;;;;;;6.23;96.61;101775.02;1727916;81;20149;-79
2021/10/24 08:26:06;;;;;;;;;;;;;;;6.38;94.76;101770.19;1735992;82;20564;-79
2021/10/24 08:28:36;;;;;;;;;;;;;;;6.39;95.72;101779.77;1735164;82;20186;-81
2021/10/24 08:31:03;;;;;;;;;;;;;;;6.42;95.94;101768.26;1733256;82;20887;-81
2021/10/24 08:33:30;;;;;;;;;;;;;;;6.64;96.03;101766.52;1733813;82;20177;-83
2021/10/24 08:35:57;;;;;;;;;;;;;;;6.72;95.47;101764.28;1732157;82;21097;-80
2021/10/24 08:38:24;;;;;;;;;;;;;;;6.78;95.61;101766.54;1737222;81;20178;-80
2021/10/24 08:40:57;;;;;;;;;;;;;;;6.87;95.62;101767.78;1684291;82;20307;-84
2021/10/24 08:43:30;;;;;;;;;;;;;;;6.94;94.66;101763.83;1739555;82;21150;-77
2021/10/24 08:45:56;;;;;;;;;;;;;;;7.08;94.25;101772.19;1735970;81;20118;-79
2021/10/24 08:48:25;;;;;;;;;;;;;;;7.14;93.98;101773.61;1740178;82;20126;-84
2021/10/24 08:50:51;;;;;;;;;;;;;;;7.25;94.18;101767.70;1736180;82;20211;-82
2021/10/24 08:53:21;;;;;;;;;;;;;;;7.27;93.48;101772.37;1739986;82;21079;-85
2021/10/24 08:55:50;;;;;;;;;;;;;;;7.44;92.37;101776.14;1737996;82;20164;-85
2021/10/24 08:58:16;;;;;;;;;;;;;;;7.64;91.58;101772.72;1708999;82;20614;-86
2021/10/24 09:00:44;;;;;;;;;;;;;;;7.85;91.39;101769.20;1735626;82;20297;-82
2021/10/24 09:03:09;;;;;;;;;;;;;;;7.87;90.01;101775.20;1735388;82;20223;-85
2021/10/24 09:05:39;;;;;;;;;;;;;;;7.79;89.34;101782.27;1709902;82;20182;-84
2021/10/24 09:08:16;;;;;;;;;;;;;;;7.94;87.74;101776.95;1734244;82;20627;-81
2021/10/24 09:10:50;;;;;;;;;;;;;;;8.03;88.28;101777.23;1736469;82;20523;-81
2021/10/24 09:13:27;;;;;;;;;;;;;;;7.88;88.76;101786.94;1737602;81;21002;-79
2021/10/24 09:16:06;;;;;;;;;;;;;;;7.76;88.26;101782.46;1737836;81;20321;-81
2021/10/24 09:18:41;;;;;;;;;;;;;;;7.78;88.00;101784.51;1736616;82;20198;-85
2021/10/24 09:21:19;;;;;;;;;;;;;;;8.00;87.32;101787.09;1735993;81;21176;-79
2021/10/24 09:23:50;;;;;;;;;;;;;;;8.13;87.34;101790.63;1736806;82;20229;-84
2021/10/24 09:26:24;;;;;;;;;;;;;;;7.93;86.55;101789.76;1739447;82;20118;-84
2021/10/24 09:28:58;;;;;;;;;;;;;;;8.08;87.44;101792.72;1741150;82;20763;-83
2021/10/24 09:31:29;;;;;;;;;;;;;;;8.00;86.09;101795.84;1736010;81;20177;-84
2021/10/24 09:33:59;;;;;;;;;;;;;;;7.86;86.25;101795.86;1736654;81;21053;-85
2021/10/24 09:36:24;;;;;;;;;;;;;;;7.99;86.60;101793.31;1736090;81;20307;-84
2021/10/24 09:38:50;;;;;;;;;;;;;;;8.01;86.30;101791.41;1734482;82;20601;-83
2021/10/24 09:41:17;;;;;;;;;;;;;;;7.90;86.32;101795.56;1733379;82;20504;-84
2021/10/24 09:43:43;;;;;;;;;;;;;;;8.08;86.47;101797.98;1710917;82;20162;-83
2021/10/24 09:46:17;;;;;;;;;;;;;;;7.94;85.19;101800.63;1730185;82;21040;-81
2021/10/24 09:48:45;;;;;;;;;;;;;;;7.82;86.31;101807.05;1732219;81;20207;-80
2021/10/24 09:51:14;;;;;;;;;;;;;;;8.10;86.87;101807.92;1734104;81;20111;-84
2021/10/24 09:53:43;;;;;;;;;;;;;;;8.11;85.91;101810.94;1731172;81;20209;-80
2021/10/24 09:56:12;;;;;;;;;;;;;;;8.18;85.88;101814.84;1735372;81;20178;-81
2021/10/24 09:58:40;;;;;;;;;;;;;;;8.23;85.61;101807.52;1729971;81;21901;-84
2021/10/24 10:01:08;;;;;;;;;;;;;;;8.25;85.35;101811.36;1717525;82;20142;-84
2021/10/24 10:03:35;;;;;;;;;;;;;;;8.33;84.46;101809.52;1710624;82;20188;-82
2021/10/24 10:06:06;;;;;;;;;;;;;;;8.24;84.41;101808.34;1736629;81;20198;-81
2021/10/24 10:08:32;;;;;;;;;;;;;;;8.13;84.52;101815.63;1728419;82;20161;-79
2021/10/24 10:11:04;;;;;;;;;;;;;;;8.25;84.48;101815.31;1707596;82;21088;-81
2021/10/24 10:13:34;;;;;;;;;;;;;;;8.29;85.21;101813.31;1682873;82;39417;-83
2021/10/24 10:16:14;;;;;;;;;;;;;;;8.37;83.90;101813.64;1737364;82;20150;-83
2021/10/24 10:18:59;;;;;;;;;;;;;;;8.43;82.85;101807.98;1733976;82;20170;-81
2021/10/24 10:21:45;;;;;;;;;;;;;;;8.72;82.81;101818.41;1731284;82;20202;-82
2021/10/24 10:24:33;;;;;;;;;;;;;;;8.83;82.46;101817.20;1727874;82;20142;-80
2021/10/24 10:27:03;;;;;;;;;;;;;;;8.96;81.86;101818.52;1732470;81;20311;-80
2021/10/24 10:29:52;;;;;;;;;;;;;;;9.17;81.98;101824.13;1728233;81;20110;-84
2021/10/24 10:32:22;;;;;;;;;;;;;;;9.26;80.49;101823.95;1707030;82;20185;-82
2021/10/24 10:35:01;;;;;;;;;;;;;;;9.34;80.55;101819.84;1736327;81;20147;-83
2021/10/24 10:37:55;;;;;;;;;;;;;;;9.12;79.51;101824.45;1725924;81;22066;-85
2021/10/24 10:40:38;;;;;;;;;;;;;;;9.24;79.12;101822.73;1732108;82;20173;-87
2021/10/24 10:43:20;;;;;;;;;;;;;;;9.13;80.16;101820.01;1724113;82;20210;-85
2021/10/24 10:45:51;;;;;;;;;;;;;;;9.14;79.90;101818.58;1735519;82;20166;-81
2021/10/24 10:48:43;;;;;;;;;;;;;;;9.05;81.08;101815.27;1726201;82;20144;-78
2021/10/24 10:51:19;;;;;;;;;;;;;;;9.14;80.16;101817.75;1730578;81;21205;-82
2021/10/24 10:53:58;;;;;;;;;;;;;;;9.31;79.47;101812.14;1729025;81;20171;-91
2021/10/24 10:56:33;;;;;;;;;;;;;;;9.45;79.18;101818.27;1729847;81;20180;-86
2021/10/24 10:59:02;;;;;;;;;;;;;;;9.32;77.63;101816.94;1729014;82;20550;-85
2021/10/24 11:01:34;;;;;;;;;;;;;;;9.45;78.29;101814.30;1712034;82;20506;-83
2021/10/24 11:04:16;;;;;;;;;;;;;;;9.53;78.28;101822.52;1726975;81;20221;-81
2021/10/24 11:06:49;;;;;;;;;;;;;;;9.67;77.54;101814.45;1725454;82;20165;-81
2021/10/24 11:09:43;;;;;;;;;;;;;;;9.48;76.99;101817.56;1732265;81;20250;-81
2021/10/24 11:12:14;;;;;;;;;;;;;;;9.38;76.57;101813.03;1732675;81;20377;-80
2021/10/24 11:14:44;;;;;;;;;;;;;;;9.45;77.33;101819.58;1723699;82;20817;-84
2021/10/24 11:17:12;;;;;;;;;;;;;;;9.49;76.77;101815.30;1733278;81;21144;-81
2021/10/24 11:19:41;;;;;;;;;;;;;;;9.32;76.38;101820.44;1707368;82;20146;-82
2021/10/24 11:22:10;;;;;;;;;;;;;;;9.46;75.43;101808.92;1728924;81;20213;-82
2021/10/24 11:24:43;;;;;;;;;;;;;;;9.51;75.37;101800.69;1728472;82;20222;-83
2021/10/24 11:27:14;;;;;;;;;;;;;;;9.54;75.82;101805.75;1729199;82;20203;-78
2021/10/24 11:29:54;;;;;;;;;;;;;;;9.67;75.84;101799.95;1727363;82;20289;-82
2021/10/24 11:32:35;;;;;;;;;;;;;;;9.51;76.37;101804.16;1727873;81;20250;-82
2021/10/24 11:35:14;;;;;;;;;;;;;;;9.56;76.65;101802.52;1727190;81;20359;-86
2021/10/24 11:37:54;;;;;;;;;;;;;;;9.57;76.14;101805.53;1733191;81;20187;-80
2021/10/24 11:40:27;;;;;;;;;;;;;;;9.64;74.78;101806.76;1732551;82;20242;-78
2021/10/24 11:43:19;;;;;;;;;;;;;;;9.84;75.07;101796.59;1731995;81;21211;-81
2021/10/24 11:45:49;;;;;;;;;;;;;;;9.93;73.62;101801.20;1729359;82;20152;-79
2021/10/24 11:48:21;;;;;;;;;;;;;;;9.81;74.02;101793.69;1732002;81;20183;-79
2021/10/24 11:51:00;;;;;;;;;;;;;;;9.86;73.93;101790.72;1709711;81;20162;-80
2021/10/24 11:53:37;;;;;;;;;;;;;;;9.83;73.65;101790.94;1735192;81;20146;-86
2021/10/24 11:56:11;;;;;;;;;;;;;;;9.95;72.80;101794.01;1735215;82;21073;-83
2021/10/24 12:01:26;;;;;;;;;;;;;;;10.10;73.96;101796.02;1712065;82;20134;-84
2021/10/24 12:03:55;;;;;;;;;;;;;;;10.24;73.38;101796.32;1737447;82;20189;-84
2021/10/24 12:07:01;;;;;;;;;;;;;;;10.29;72.72;101799.45;1730599;82;20189;-87
2021/10/24 12:09:37;;;;;;;;;;;;;;;10.38;72.43;101795.33;1735408;82;21207;-86
2021/10/24 12:12:22;;;;;;;;;;;;;;;10.35;71.20;101793.75;1723086;82;20146;-85
2021/10/24 12:14:52;;;;;;;;;;;;;;;10.44;70.45;101791.38;1730212;82;20171;-80
2021/10/24 12:17:20;;;;;;;;;;;;;;;10.36;70.74;101796.77;1712050;82;20182;-87
2021/10/24 12:19:46;;;;;;;;;;;;;;;10.49;70.40;101791.89;1725653;82;20178;-86
2021/10/24 12:22:13;;;;;;;;;;;;;;;10.63;70.35;101794.33;1734316;82;22204;-80
2021/10/24 12:24:42;;;;;;;;;;;;;;;10.74;70.52;101796.98;1733227;82;20222;-86
2021/10/24 12:27:30;;;;;;;;;;;;;;;10.85;70.43;101794.85;1731326;82;20489;-82
2021/10/24 12:29:57;;;;;;;;;;;;;;;10.67;69.47;101798.41;1735714;81;20156;-77
2021/10/24 12:32:24;;;;;;;;;;;;;;;10.68;70.07;101797.45;1737036;81;20209;-82
2021/10/24 12:35:09;;;;;;;;;;;;;;;10.87;70.53;101796.05;1732217;81;22096;-84
2021/10/24 12:37:37;;;;;;;;;;;;;;;10.91;70.55;101792.23;1733564;82;20174;-81
2021/10/24 12:40:20;;;;;;;;;;;;;;;10.88;69.94;101786.69;1726904;81;20160;-77
2021/10/24 12:43:01;;;;;;;;;;;;;;;10.90;69.85;101783.93;1728863;81;20213;-79
2021/10/24 12:45:29;;;;;;;;;;;;;;;11.13;69.15;101788.77;1749627;80;20166;-78
2021/10/24 12:47:58;;;;;;;;;;;;;;;11.06;68.26;101789.73;1758372;80;20204;-80
2021/10/24 12:50:34;;;;;;;;;;;;;;;11.08;67.97;101789.12;1754584;80;20313;-83
2021/10/24 12:53:06;;;;;;;;;;;;;;;11.19;67.84;101780.34;1758849;80;20144;-82
2021/10/24 12:55:34;;;;;;;;;;;;;;;11.43;67.93;101776.23;1750114;80;20704;-84